Time;durP1;ratioP1;P1;durP2;ratioP2;P2;SDS_P1;SDS_P2;PMS_P1;PMS_P2;Temp;Humidity;BMP_temperature;BMP_pressure;BME280_temperature;BME280_humidity;BME280_pressure;Samples;Min_cycle;Max_cycle;Signal;HPM_P1;HPM_P2
2022/06/13 00:01:01;;;;;;;0.40;0.40;;;18.50;99.90;;;;;;5071246;28;20736;-71
2022/06/13 00:03:26;;;;;;;0.50;0.50;;;18.60;99.90;;;;;;5070632;28;20395;-70
2022/06/13 00:05:52;;;;;;;0.40;0.20;;;18.50;99.90;;;;;;5071205;28;20598;-71
2022/06/13 00:08:18;;;;;;;0.60;0.40;;;18.60;99.90;;;;;;5071500;28;20392;-71
2022/06/13 00:10:43;;;;;;;0.40;0.30;;;18.80;99.90;;;;;;5070451;28;20395;-71
2022/06/13 00:13:09;;;;;;;0.40;0.20;;;18.60;99.90;;;;;;5071029;28;20479;-71
2022/06/13 00:15:35;;;;;;;0.40;0.20;;;18.60;99.90;;;;;;5070097;28;20407;-71
2022/06/13 00:18:01;;;;;;;0.40;0.30;;;18.60;99.90;;;;;;5053286;28;20400;-71
2022/06/13 00:20:26;;;;;;;0.40;0.20;;;18.60;99.90;;;;;;5070958;28;20409;-71
2022/06/13 00:22:52;;;;;;;0.50;0.40;;;18.60;99.90;;;;;;5070335;28;20419;-71
2022/06/13 00:25:18;;;;;;;0.40;0.30;;;18.60;99.90;;;;;;5053072;28;20392;-71
2022/06/13 00:27:44;;;;;;;1.20;1.10;;;18.60;99.90;;;;;;5069804;28;20392;-71
2022/06/13 00:30:11;;;;;;;0.40;0.20;;;18.60;99.90;;;;;;5070938;28;20438;-71
2022/06/13 00:32:36;;;;;;;1.30;1.20;;;18.50;99.90;;;;;;5070066;28;20403;-71
2022/06/13 00:35:03;;;;;;;0.40;0.20;;;18.50;99.90;;;;;;5071061;28;20384;-71
2022/06/13 00:37:29;;;;;;;0.45;0.45;;;18.50;99.90;;;;;;5052011;28;20408;-71
2022/06/13 00:39:55;;;;;;;0.40;0.20;;;18.40;99.90;;;;;;5070693;28;20398;-71
2022/06/13 00:42:23;;;;;;;0.40;0.20;;;18.50;99.90;;;;;;5070554;28;20423;-71
2022/06/13 00:45:07;;;;;;;0.40;0.30;;;18.50;99.90;;;;;;5069404;28;21423;-71
2022/06/13 00:47:34;;;;;;;0.40;0.20;;;18.40;99.90;;;;;;5069447;28;20395;-71
2022/06/13 00:50:01;;;;;;;0.40;0.20;;;18.50;99.90;;;;;;5052485;28;20785;-71
2022/06/13 00:52:52;;;;;;;0.40;0.20;;;18.50;99.90;;;;;;5070577;28;20467;-72
2022/06/13 00:55:31;;;;;;;0.40;0.30;;;18.40;99.90;;;;;;5054016;28;20400;-71
2022/06/13 00:57:59;;;;;;;0.40;0.20;;;18.30;99.90;;;;;;5070546;28;20404;-72
2022/06/13 01:00:26;;;;;;;0.40;0.30;;;18.30;99.90;;;;;;5070093;28;20410;-72
2022/06/13 01:02:54;;;;;;;0.40;0.30;;;18.30;99.90;;;;;;5070094;28;20441;-72
2022/06/13 01:05:24;;;;;;;0.40;0.20;;;18.30;99.90;;;;;;5069985;28;20400;-73
2022/06/13 01:07:50;;;;;;;0.40;0.20;;;18.30;99.90;;;;;;5069516;28;20445;-72
2022/06/13 01:13:08;;;;;;;0.50;0.50;;;18.30;99.90;;;;;;5070477;28;20398;-72
2022/06/13 01:16:00;;;;;;;0.40;0.30;;;18.40;99.90;;;;;;5069208;28;20403;-71
2022/06/13 01:19:07;;;;;;;0.40;0.20;;;18.30;99.90;;;;;;5070121;28;20744;-71
2022/06/13 01:21:57;;;;;;;0.40;0.30;;;18.30;99.90;;;;;;5041817;28;20586;-71
2022/06/13 01:24:38;;;;;;;0.40;0.40;;;18.30;99.90;;;;;;5050339;28;20487;-71
2022/06/13 01:27:36;;;;;;;0.40;0.30;;;18.20;99.90;;;;;;5063598;28;20541;-71
2022/06/13 01:30:25;;;;;;;0.40;0.30;;;18.20;99.90;;;;;;5014305;28;20404;-71
2022/06/13 01:33:06;;;;;;;0.40;0.30;;;18.20;99.90;;;;;;5068918;28;20614;-71
2022/06/13 01:35:46;;;;;;;0.40;0.25;;;18.20;99.90;;;;;;5069610;28;20436;-70
2022/06/13 01:38:28;;;;;;;0.40;0.30;;;18.20;99.90;;;;;;5054753;28;20453;-71
2022/06/13 01:41:03;;;;;;;0.40;0.30;;;18.20;99.90;;;;;;5073038;28;20406;-71
2022/06/13 01:43:47;;;;;;;0.40;0.30;;;18.10;99.90;;;;;;5073540;28;20717;-71
2022/06/13 01:46:16;;;;;;;0.40;0.30;;;18.10;99.90;;;;;;5074348;28;20398;-72
2022/06/13 01:49:08;;;;;;;0.40;0.30;;;18.10;99.90;;;;;;5073361;28;20400;-71
2022/06/13 01:51:42;;;;;;;0.40;0.30;;;18.10;99.90;;;;;;5073468;28;20395;-71
2022/06/13 01:54:21;;;;;;;0.40;0.20;;;18.00;99.90;;;;;;5065972;28;20867;-71
2022/06/13 01:56:51;;;;;;;0.40;0.30;;;18.10;99.90;;;;;;5055126;28;20419;-71
2022/06/13 01:59:33;;;;;;;0.40;0.30;;;18.10;99.90;;;;;;5073957;28;20399;-71
2022/06/13 02:02:21;;;;;;;0.40;0.30;;;18.20;99.90;;;;;;5073983;28;20859;-71
2022/06/13 02:04:59;;;;;;;0.40;0.30;;;18.20;99.90;;;;;;5072619;28;20399;-71
2022/06/13 02:07:29;;;;;;;0.40;0.20;;;18.20;99.90;;;;;;5071314;28;20398;-71
2022/06/13 02:10:02;;;;;;;0.40;0.20;;;18.20;99.90;;;;;;5073067;28;20466;-71
2022/06/13 02:12:35;;;;;;;0.40;0.20;;;18.20;99.90;;;;;;5073644;28;20445;-71
2022/06/13 02:15:10;;;;;;;0.40;0.20;;;18.20;99.90;;;;;;5073596;28;20399;-70
2022/06/13 02:17:42;;;;;;;0.40;0.20;;;18.20;99.90;;;;;;5072481;28;20388;-71
2022/06/13 02:20:16;;;;;;;0.40;0.20;;;18.10;99.90;;;;;;5073784;28;20437;-70
2022/06/13 02:22:50;;;;;;;0.40;0.20;;;18.00;99.90;;;;;;5072837;28;20399;-70
2022/06/13 02:25:26;;;;;;;0.40;0.20;;;18.00;99.90;;;;;;5070179;28;20392;-70
2022/06/13 02:28:08;;;;;;;0.40;0.20;;;18.00;99.90;;;;;;5072351;28;21066;-70
2022/06/13 02:30:43;;;;;;;0.40;0.20;;;18.10;99.90;;;;;;5056168;28;20483;-70
2022/06/13 02:33:24;;;;;;;0.40;0.20;;;17.90;99.90;;;;;;5073259;28;20461;-71
2022/06/13 02:36:01;;;;;;;0.40;0.30;;;18.00;99.90;;;;;;5072458;28;20395;-71
2022/06/13 02:38:55;;;;;;;0.40;0.30;;;17.90;99.90;;;;;;5073228;28;20875;-71
2022/06/13 02:41:24;;;;;;;0.50;0.50;;;18.00;99.90;;;;;;5072493;28;20488;-71
2022/06/13 02:44:17;;;;;;;0.40;0.30;;;17.90;99.90;;;;;;5072284;28;20408;-71
2022/06/13 02:46:55;;;;;;;0.40;0.30;;;18.00;99.90;;;;;;5052584;28;20404;-71
2022/06/13 02:49:40;;;;;;;0.40;0.20;;;18.00;99.90;;;;;;5065430;28;20478;-71
2022/06/13 02:52:18;;;;;;;0.40;0.30;;;17.90;99.90;;;;;;5072872;28;20517;-71
2022/06/13 02:54:54;;;;;;;0.40;0.30;;;17.80;99.90;;;;;;5072010;28;20414;-71
2022/06/13 02:58:07;;;;;;;0.40;0.30;;;17.90;99.90;;;;;;5072886;28;20400;-71
2022/06/13 03:00:38;;;;;;;0.40;0.30;;;17.80;99.90;;;;;;5009095;28;20400;-70
2022/06/13 03:03:23;;;;;;;0.40;0.20;;;17.80;99.90;;;;;;5072647;28;20411;-70
2022/06/13 03:06:00;;;;;;;0.40;0.30;;;17.80;99.90;;;;;;5071910;28;20764;-70
2022/06/13 03:08:32;;;;;;;0.40;0.20;;;17.70;99.90;;;;;;5072893;28;20445;-71
2022/06/13 03:11:13;;;;;;;0.40;0.40;;;17.80;99.90;;;;;;5052086;28;20409;-71
2022/06/13 03:14:10;;;;;;;0.40;0.30;;;18.00;99.90;;;;;;5067977;28;20896;-72
2022/06/13 03:16:55;;;;;;;0.40;0.20;;;17.90;99.90;;;;;;5071266;28;20403;-72
2022/06/13 03:19:35;;;;;;;0.40;0.30;;;17.90;99.90;;;;;;5072465;28;20392;-73
2022/06/13 03:22:16;;;;;;;0.40;0.20;;;17.80;99.90;;;;;;5051994;28;20418;-73
2022/06/13 03:24:50;;;;;;;0.40;0.30;;;17.90;99.90;;;;;;5068722;28;20401;-73
2022/06/13 03:27:35;;;;;;;0.40;0.30;;;18.00;99.90;;;;;;5072231;28;20454;-73
2022/06/13 03:30:08;;;;;;;0.40;0.20;;;17.70;99.90;;;;;;5071363;28;20403;-73
2022/06/13 03:32:42;;;;;;;0.40;0.20;;;17.70;99.90;;;;;;5072236;28;20407;-73
2022/06/13 03:35:14;;;;;;;0.40;0.30;;;17.80;99.90;;;;;;5072153;28;20396;-73
2022/06/13 03:37:45;;;;;;;0.50;0.50;;;17.80;99.90;;;;;;5071473;28;20429;-73
2022/06/13 03:40:21;;;;;;;0.47;0.43;;;17.70;99.90;;;;;;5071595;28;20392;-72
2022/06/13 03:42:54;;;;;;;0.40;0.25;;;17.60;99.90;;;;;;5071153;28;20523;-72
2022/06/13 03:45:42;;;;;;;0.40;0.30;;;17.70;99.90;;;;;;5072079;28;20529;-71
2022/06/13 03:48:35;;;;;;;0.40;0.30;;;17.60;99.90;;;;;;5071517;28;20427;-71
2022/06/13 03:51:08;;;;;;;0.40;0.30;;;17.60;99.90;;;;;;5057124;28;20412;-70
2022/06/13 03:53:39;;;;;;;0.40;0.20;;;17.70;99.90;;;;;;5071942;28;20394;-70
2022/06/13 03:56:26;;;;;;;0.70;0.60;;;17.90;99.90;;;;;;5071208;28;20883;-70
2022/06/13 03:59:15;;;;;;;0.40;0.30;;;17.80;99.90;;;;;;5070556;28;20851;-70
2022/06/13 04:01:53;;;;;;;0.40;0.30;;;17.80;99.90;;;;;;5070474;28;20431;-70
2022/06/13 04:04:24;;;;;;;0.40;0.30;;;17.80;99.90;;;;;;5051851;28;20401;-70
2022/06/13 04:06:50;;;;;;;0.40;0.30;;;17.80;99.90;;;;;;5061370;28;20424;-69
2022/06/13 04:09:22;;;;;;;0.40;0.20;;;17.70;99.90;;;;;;5071228;28;20398;-69
2022/06/13 04:11:58;;;;;;;0.40;0.30;;;17.80;99.90;;;;;;5070429;28;20396;-66
2022/06/13 04:14:29;;;;;;;0.40;0.20;;;17.70;99.90;;;;;;5071478;28;20487;-69
2022/06/13 04:17:06;;;;;;;0.40;0.30;;;17.50;99.90;;;;;;5070181;28;20396;-68
2022/06/13 04:19:58;;;;;;;0.40;0.30;;;17.60;99.90;;;;;;5071316;28;20484;-70
2022/06/13 04:23:04;;;;;;;0.40;0.30;;;17.60;99.90;;;;;;5071337;28;20419;-69
2022/06/13 04:26:03;;;;;;;0.40;0.20;;;17.40;99.90;;;;;;5051504;28;20382;-69
2022/06/13 04:28:34;;;;;;;0.40;0.20;;;17.40;99.90;;;;;;4993701;28;20431;-69
2022/06/13 04:31:03;;;;;;;0.40;0.20;;;17.40;99.90;;;;;;5057833;28;21062;-69
2022/06/13 04:33:34;;;;;;;0.40;0.30;;;17.40;99.90;;;;;;5070824;28;20379;-68
2022/06/13 04:36:00;;;;;;;0.40;0.20;;;17.40;99.90;;;;;;5070404;28;20956;-68
2022/06/13 04:38:27;;;;;;;0.40;0.20;;;17.30;99.90;;;;;;5070765;28;20479;-69
2022/06/13 04:41:00;;;;;;;0.50;0.50;;;17.20;99.90;;;;;;5070145;28;20395;-68
2022/06/13 04:43:33;;;;;;;0.40;0.20;;;17.10;99.90;;;;;;5070313;28;20461;-68
2022/06/13 04:46:04;;;;;;;0.40;0.20;;;17.20;99.90;;;;;;5070086;28;20419;-68
2022/06/13 04:48:31;;;;;;;0.40;0.20;;;16.90;99.90;;;;;;5070670;28;20880;-68
2022/06/13 04:51:01;;;;;;;0.40;0.30;;;16.80;99.90;;;;;;5070010;28;20434;-68
2022/06/13 04:53:37;;;;;;;0.40;0.30;;;16.80;99.90;;;;;;5070718;28;20737;-68
2022/06/13 04:56:02;;;;;;;0.40;0.20;;;16.60;99.90;;;;;;5069888;28;20391;-68
2022/06/13 04:58:39;;;;;;;0.40;0.30;;;16.50;99.90;;;;;;5052560;28;20457;-68
2022/06/13 05:01:05;;;;;;;0.40;0.20;;;16.50;99.90;;;;;;5069141;28;20399;-68
2022/06/13 05:03:36;;;;;;;0.40;0.20;;;16.40;99.90;;;;;;5069846;28;20926;-68
2022/06/13 05:06:06;;;;;;;0.40;0.20;;;16.30;99.90;;;;;;5069856;28;20403;-68
2022/06/13 05:08:36;;;;;;;0.40;0.20;;;16.30;99.90;;;;;;5070736;28;20885;-68
2022/06/13 05:11:22;;;;;;;0.40;0.20;;;16.30;99.90;;;;;;5069492;28;20471;-68
2022/06/13 05:13:52;;;;;;;0.40;0.20;;;16.30;99.90;;;;;;5049605;28;20401;-68
2022/06/13 05:16:48;;;;;;;0.40;0.30;;;16.40;99.90;;;;;;5063146;28;20444;-68
2022/06/13 05:19:20;;;;;;;0.40;0.20;;;16.50;99.90;;;;;;5013450;28;20746;-68
2022/06/13 05:21:49;;;;;;;0.40;0.20;;;16.70;99.90;;;;;;5069738;28;20411;-68
2022/06/13 05:24:26;;;;;;;0.60;0.60;;;16.80;99.90;;;;;;5070370;28;20396;-69
2022/06/13 05:26:52;;;;;;;0.40;0.40;;;16.80;99.90;;;;;;5069561;28;20474;-69
2022/06/13 05:29:17;;;;;;;0.40;0.28;;;16.90;99.90;;;;;;5070491;28;20480;-68
2022/06/13 05:31:43;;;;;;;0.40;0.20;;;16.90;99.90;;;;;;5069464;28;20403;-68
2022/06/13 05:34:23;;;;;;;0.40;0.20;;;16.90;99.90;;;;;;5069905;28;20468;-68
2022/06/13 05:36:48;;;;;;;0.40;0.20;;;17.00;99.90;;;;;;5069724;28;20377;-69
2022/06/13 05:39:14;;;;;;;0.40;0.28;;;17.10;99.90;;;;;;5070341;28;20402;-70
2022/06/13 05:41:39;;;;;;;0.40;0.40;;;17.10;99.90;;;;;;5069730;28;20414;-70
2022/06/13 05:44:06;;;;;;;0.40;0.30;;;17.40;99.90;;;;;;5069297;28;21003;-70
2022/06/13 05:46:34;;;;;;;0.40;0.30;;;17.40;99.90;;;;;;5070328;28;20887;-70
2022/06/13 05:49:01;;;;;;;0.90;0.90;;;17.40;99.90;;;;;;5068880;28;20475;-69
2022/06/13 05:51:26;;;;;;;0.40;0.30;;;17.30;99.90;;;;;;5068984;28;20751;-70
2022/06/13 05:53:53;;;;;;;0.40;0.20;;;17.40;99.90;;;;;;5069355;28;20467;-70
2022/06/13 05:56:20;;;;;;;0.40;0.20;;;17.30;99.90;;;;;;5069679;28;20911;-71
2022/06/13 05:58:46;;;;;;;0.40;0.20;;;17.40;99.90;;;;;;5069464;28;20395;-70
2022/06/13 06:01:13;;;;;;;0.40;0.20;;;17.40;99.90;;;;;;5069394;28;20404;-69
2022/06/13 06:03:40;;;;;;;0.60;0.60;;;17.30;99.90;;;;;;5069631;28;20478;-70
2022/06/13 06:06:05;;;;;;;0.40;0.20;;;17.40;99.90;;;;;;5064711;28;21044;-70
2022/06/13 06:08:35;;;;;;;0.60;0.60;;;17.40;99.90;;;;;;5056810;28;20399;-70
2022/06/13 06:11:01;;;;;;;0.40;0.20;;;17.60;99.90;;;;;;5062729;28;20380;-70
2022/06/13 06:13:28;;;;;;;0.40;0.30;;;17.50;99.90;;;;;;5066441;28;20494;-69
2022/06/13 06:15:54;;;;;;;0.40;0.30;;;17.60;99.90;;;;;;5064140;28;20821;-69
2022/06/13 06:18:22;;;;;;;2.00;1.90;;;17.70;99.90;;;;;;5054095;28;20393;-69
2022/06/13 06:20:47;;;;;;;0.77;0.50;;;17.60;99.90;;;;;;5059644;28;20478;-68
2022/06/13 06:23:13;;;;;;;0.40;0.20;;;17.40;99.90;;;;;;5064391;28;20947;-68
2022/06/13 06:25:40;;;;;;;0.40;0.20;;;17.50;99.90;;;;;;5064201;28;20421;-68
2022/06/13 06:28:06;;;;;;;0.40;0.40;;;17.60;99.90;;;;;;5063943;28;21184;-68
2022/06/13 06:30:33;;;;;;;0.40;0.30;;;17.50;99.90;;;;;;5063761;28;20405;-68
2022/06/13 06:33:00;;;;;;;0.40;0.20;;;17.40;99.90;;;;;;5063213;28;20392;-68
2022/06/13 06:35:27;;;;;;;0.40;0.20;;;17.40;99.90;;;;;;5056213;28;20459;-68
2022/06/13 06:37:54;;;;;;;0.60;0.60;;;17.40;99.90;;;;;;5059361;28;20727;-68
2022/06/13 06:40:22;;;;;;;0.60;0.40;;;17.40;99.90;;;;;;5064110;28;20864;-70
2022/06/13 06:42:48;;;;;;;0.40;0.20;;;17.30;99.90;;;;;;5061645;28;20799;-68
2022/06/13 06:45:14;;;;;;;0.40;0.20;;;17.20;99.90;;;;;;5061062;28;20415;-68
2022/06/13 06:47:40;;;;;;;0.40;0.30;;;17.10;99.90;;;;;;5062964;28;20405;-68
2022/06/13 06:50:14;;;;;;;0.40;0.20;;;17.20;99.90;;;;;;5060145;28;20396;-68
2022/06/13 06:52:41;;;;;;;0.40;0.20;;;17.20;99.90;;;;;;5061011;28;20400;-68
2022/06/13 07:00:45;;;;;;;0.40;0.20;;;17.40;99.90;;;;;;5059863;28;20810;-68
2022/06/13 07:03:11;;;;;;;0.40;0.30;;;17.30;99.90;;;;;;5065965;28;20503;-68
2022/06/13 07:05:37;;;;;;;0.40;0.40;;;17.30;99.90;;;;;;5067652;28;20476;-68
2022/06/13 07:08:03;;;;;;;0.40;0.20;;;17.30;99.90;;;;;;5062597;28;20402;-69
2022/06/13 07:10:29;;;;;;;0.40;0.20;;;17.30;99.90;;;;;;5065889;28;20384;-69
2022/06/13 07:12:54;;;;;;;0.40;0.20;;;17.40;99.90;;;;;;5063475;28;20483;-69
2022/06/13 07:15:20;;;;;;;0.40;0.20;;;17.30;99.90;;;;;;5065657;28;20399;-68
2022/06/13 07:17:46;;;;;;;0.70;0.60;;;17.40;99.90;;;;;;5067995;28;20391;-69
2022/06/13 07:20:13;;;;;;;0.40;0.20;;;17.40;99.90;;;;;;5066536;28;20394;-68
2022/06/13 07:22:46;;;;;;;0.40;0.20;;;17.50;99.90;;;;;;5072664;28;20502;-69
2022/06/13 07:25:16;;;;;;;0.40;0.30;;;17.60;99.90;;;;;;5071742;28;20882;-69
2022/06/13 07:27:42;;;;;;;0.40;0.30;;;17.80;99.90;;;;;;5072101;28;20489;-69
2022/06/13 07:30:08;;;;;;;1.30;1.30;;;17.80;99.90;;;;;;5071488;28;20423;-69
2022/06/13 07:32:34;;;;;;;0.40;0.30;;;17.80;99.90;;;;;;5072222;28;20733;-69
2022/06/13 07:35:01;;;;;;;0.40;0.20;;;17.80;99.90;;;;;;5070541;28;20384;-69
2022/06/13 07:40:12;;;;;;;0.50;0.50;;;17.80;99.90;;;;;;5067027;28;20390;-68
2022/06/13 07:42:47;;;;;;;0.40;0.20;;;17.80;99.90;;;;;;5065429;28;20427;-69
2022/06/13 07:45:20;;;;;;;1.50;1.30;;;18.00;99.90;;;;;;5064861;28;20409;-69
2022/06/13 07:48:01;;;;;;;0.40;0.30;;;18.00;99.90;;;;;;5066557;28;20430;-69
2022/06/13 07:50:27;;;;;;;0.40;0.20;;;18.00;99.90;;;;;;5066871;28;20407;-70
2022/06/13 07:52:57;;;;;;;0.40;0.20;;;18.00;99.90;;;;;;5071073;28;20395;-71
2022/06/13 07:55:30;;;;;;;1.20;1.20;;;18.10;99.90;;;;;;5060623;28;20404;-70
2022/06/13 07:59:01;;;;;;;0.40;0.20;;;18.00;99.90;;;;;;5070389;28;20406;-70
2022/06/13 08:01:49;;;;;;;0.40;0.30;;;18.10;99.90;;;;;;5056830;28;20443;-70
2022/06/13 08:07:17;;;;;;;0.40;0.20;;;18.00;99.90;;;;;;5048961;28;20484;-70
2022/06/13 08:10:22;;;;;;;0.40;0.30;;;18.10;99.90;;;;;;5070122;28;20396;-70
2022/06/13 08:13:02;;;;;;;0.60;0.60;;;18.40;99.90;;;;;;5039577;28;20417;-69
2022/06/13 08:15:28;;;;;;;0.40;0.30;;;18.30;99.90;;;;;;5054635;28;20798;-70
2022/06/13 08:18:23;;;;;;;0.40;0.20;;;18.30;99.90;;;;;;5068730;28;20404;-70
2022/06/13 08:21:01;;;;;;;0.40;0.20;;;18.40;99.90;;;;;;5069272;28;20396;-70
2022/06/13 08:23:27;;;;;;;0.50;0.50;;;18.40;99.90;;;;;;5070005;28;20504;-70
2022/06/13 08:26:10;;;;;;;0.40;0.20;;;18.50;99.90;;;;;;5069478;28;20400;-69
2022/06/13 08:28:49;;;;;;;0.50;0.40;;;18.50;99.90;;;;;;5062970;28;20404;-69
2022/06/13 08:31:52;;;;;;;2.10;2.00;;;18.50;99.90;;;;;;5066194;28;21061;-70
2022/06/13 08:34:30;;;;;;;0.40;0.20;;;18.70;99.90;;;;;;5070099;28;20404;-70
2022/06/13 08:44:47;;;;;;;0.40;0.20;;;18.90;99.90;;;;;;4953202;28;20443;-72
2022/06/13 08:47:48;;;;;;;0.40;0.20;;;18.80;99.90;;;;;;4951144;28;20410;-74
2022/06/13 08:54:05;;;;;;;0.40;0.20;;;18.90;99.90;;;;;;5050871;28;20399;-73
2022/06/13 09:00:27;;;;;;;0.40;0.20;;;19.20;99.90;;;;;;4995308;28;20401;-72
2022/06/13 09:10:37;;;;;;;0.40;0.20;;;19.60;99.90;;;;;;4984754;28;20399;-74
2022/06/13 09:16:54;;;;;;;0.40;0.20;;;19.70;99.90;;;;;;4989368;28;20400;-73
2022/06/13 09:19:22;;;;;;;0.40;0.20;;;19.50;99.90;;;;;;4976374;28;20416;-73
2022/06/13 09:22:25;;;;;;;0.40;0.30;;;19.70;99.90;;;;;;4990042;28;20410;-73
2022/06/13 09:25:19;;;;;;;0.40;0.30;;;19.70;99.90;;;;;;5005241;28;20401;-73
2022/06/13 09:28:11;;;;;;;0.40;0.30;;;19.60;99.90;;;;;;5061764;28;20475;-71
2022/06/13 09:30:48;;;;;;;1.00;0.70;;;19.60;99.90;;;;;;5050677;28;20429;-70
2022/06/13 09:33:32;;;;;;;0.40;0.30;;;19.50;99.90;;;;;;5058445;28;20397;-71
2022/06/13 09:36:05;;;;;;;0.40;0.40;;;19.20;99.90;;;;;;5062197;28;20482;-71
2022/06/13 09:39:02;;;;;;;0.40;0.20;;;19.20;99.90;;;;;;5054624;28;20397;-71
2022/06/13 09:42:00;;;;;;;0.40;0.20;;;19.40;99.90;;;;;;5068045;28;20812;-71
2022/06/13 09:45:04;;;;;;;0.40;0.20;;;19.60;99.90;;;;;;5060678;28;20525;-70
2022/06/13 09:47:58;;;;;;;0.40;0.30;;;19.70;99.90;;;;;;4970893;28;20503;-71
2022/06/13 09:50:29;;;;;;;0.40;0.40;;;19.80;99.90;;;;;;5059622;28;20453;-71
2022/06/13 09:53:30;;;;;;;0.40;0.20;;;19.70;99.90;;;;;;5058823;28;20403;-71
2022/06/13 09:56:10;;;;;;;0.40;0.30;;;19.70;99.90;;;;;;4987118;28;20409;-71
2022/06/13 09:59:00;;;;;;;0.40;0.30;;;20.10;99.90;;;;;;5055931;28;20412;-71
2022/06/13 10:01:37;;;;;;;0.40;0.20;;;20.20;97.90;;;;;;5065252;28;20422;-71
2022/06/13 10:04:15;;;;;;;0.40;0.40;;;20.20;98.70;;;;;;5060919;28;20885;-71
2022/06/13 10:06:46;;;;;;;0.40;0.30;;;20.30;98.40;;;;;;5062078;28;20450;-71
2022/06/13 10:09:24;;;;;;;0.40;0.30;;;20.30;99.90;;;;;;5060287;28;20984;-71
2022/06/13 10:12:08;;;;;;;0.50;0.50;;;20.30;99.90;;;;;;5064339;28;20408;-70
2022/06/13 10:14:53;;;;;;;0.40;0.20;;;20.50;98.10;;;;;;5062839;28;20488;-70
2022/06/13 10:17:21;;;;;;;0.50;0.30;;;20.50;96.00;;;;;;5066332;28;20395;-70
2022/06/13 10:19:59;;;;;;;0.40;0.20;;;20.50;97.00;;;;;;5078438;28;20790;-70
2022/06/13 10:22:48;;;;;;;0.80;0.80;;;20.80;93.50;;;;;;5067035;28;20487;-70
2022/06/13 10:25:17;;;;;;;0.40;0.30;;;20.80;93.90;;;;;;5062548;28;20393;-70
2022/06/13 10:28:18;;;;;;;0.40;0.30;;;20.80;93.70;;;;;;5067831;28;20417;-70
2022/06/13 10:30:59;;;;;;;0.40;0.30;;;21.10;95.50;;;;;;5033625;28;20403;-70
2022/06/13 10:34:03;;;;;;;0.40;0.20;;;21.00;94.70;;;;;;5068611;28;20411;-70
2022/06/13 10:36:52;;;;;;;0.40;0.20;;;21.40;94.00;;;;;;5055020;28;20458;-70
2022/06/13 10:39:23;;;;;;;0.40;0.30;;;21.50;90.90;;;;;;5072593;28;20483;-69
2022/06/13 10:41:54;;;;;;;0.40;0.30;;;21.30;87.40;;;;;;5072684;28;20871;-69
2022/06/13 10:44:20;;;;;;;0.40;0.20;;;21.10;91.70;;;;;;5070370;28;20420;-69
2022/06/13 10:47:03;;;;;;;0.40;0.20;;;21.20;90.00;;;;;;5071993;28;20394;-69
2022/06/13 10:49:36;;;;;;;0.40;0.30;;;21.40;92.30;;;;;;5071806;28;20392;-69
2022/06/13 10:52:09;;;;;;;0.50;0.50;;;21.40;88.50;;;;;;5054602;28;20914;-70
2022/06/13 10:54:42;;;;;;;0.45;0.40;;;21.30;91.10;;;;;;5061165;28;20766;-69
2022/06/13 10:57:21;;;;;;;0.40;0.30;;;21.60;83.90;;;;;;5071840;28;20856;-69
2022/06/13 11:00:18;;;;;;;0.40;0.20;;;21.60;77.10;;;;;;5072847;28;20518;-69
2022/06/13 11:02:45;;;;;;;0.40;0.30;;;21.90;82.00;;;;;;5064523;28;20838;-69
2022/06/13 11:05:24;;;;;;;0.40;0.20;;;22.30;79.30;;;;;;5070471;28;20384;-69
2022/06/13 11:07:51;;;;;;;0.60;0.60;;;22.20;78.90;;;;;;5063203;28;20389;-69
2022/06/13 11:10:25;;;;;;;0.40;0.20;;;22.00;76.60;;;;;;5059675;28;20402;-69
2022/06/13 11:12:51;;;;;;;0.70;0.57;;;21.80;79.50;;;;;;5069253;28;20399;-69
2022/06/13 11:24:24;;;;;;;0.40;0.30;;;22.50;75.10;;;;;;5035198;28;20457;-69
2022/06/13 11:29:37;;;;;;;0.40;0.20;;;23.20;82.60;;;;;;5071506;28;20382;-71
2022/06/13 11:32:17;;;;;;;0.40;0.20;;;23.50;75.20;;;;;;5069464;28;20400;-72
2022/06/13 11:34:43;;;;;;;0.40;0.20;;;23.90;78.30;;;;;;5069692;28;20741;-71
2022/06/13 11:37:23;;;;;;;0.40;0.23;;;23.70;74.50;;;;;;5069355;28;20392;-70
2022/06/13 11:39:52;;;;;;;0.40;0.20;;;23.60;75.10;;;;;;5072240;28;20419;-69
2022/06/13 11:42:18;;;;;;;0.40;0.20;;;24.30;74.10;;;;;;5070740;28;20453;-71
2022/06/13 11:44:50;;;;;;;0.40;0.20;;;24.40;66.50;;;;;;5070809;28;20423;-71
2022/06/13 11:47:18;;;;;;;0.40;0.30;;;24.90;70.30;;;;;;5070729;28;20388;-70
2022/06/13 11:49:47;;;;;;;0.40;0.20;;;25.90;58.50;;;;;;5071729;28;20384;-69
2022/06/13 11:52:13;;;;;;;0.40;0.40;;;26.10;64.20;;;;;;5071143;28;20423;-69
2022/06/13 11:54:55;;;;;;;0.50;0.40;;;25.70;56.50;;;;;;5071051;28;20395;-68
2022/06/13 11:57:38;;;;;;;0.40;0.20;;;26.50;65.20;;;;;;5068842;28;20740;-69
2022/06/13 12:00:08;;;;;;;0.40;0.20;;;26.70;55.50;;;;;;5071480;28;20927;-69
2022/06/13 12:02:48;;;;;;;0.40;0.30;;;26.00;57.50;;;;;;5069524;28;20502;-69
2022/06/13 12:05:38;;;;;;;0.40;0.20;;;26.70;62.90;;;;;;5065510;28;20421;-69
2022/06/13 12:08:16;;;;;;;0.40;0.38;;;26.50;60.80;;;;;;5069360;28;20888;-69
2022/06/13 12:10:55;;;;;;;0.40;0.20;;;25.10;61.10;;;;;;5069875;28;20706;-69
2022/06/13 12:13:22;;;;;;;0.40;0.20;;;24.20;67.80;;;;;;5068754;28;20465;-69
2022/06/13 12:16:19;;;;;;;0.40;0.20;;;24.40;65.30;;;;;;5069672;28;20475;-69
2022/06/13 12:18:51;;;;;;;0.40;0.20;;;24.80;62.70;;;;;;5068816;28;20883;-69
2022/06/13 12:21:46;;;;;;;0.40;0.20;;;25.30;66.40;;;;;;5067214;28;20420;-68
2022/06/13 12:24:33;;;;;;;0.40;0.20;;;26.40;57.90;;;;;;5068233;28;20391;-68
2022/06/13 12:27:24;;;;;;;0.40;0.20;;;26.70;62.90;;;;;;5068869;28;20883;-68
2022/06/13 12:30:11;;;;;;;0.40;0.20;;;26.70;56.30;;;;;;5069279;28;20423;-68
2022/06/13 12:32:58;;;;;;;0.40;0.20;;;27.50;51.60;;;;;;5067891;28;20794;-68
2022/06/13 12:35:32;;;;;;;0.40;0.20;;;27.90;53.20;;;;;;5067777;28;20376;-68
2022/06/13 12:38:15;;;;;;;0.40;0.20;;;26.90;50.30;;;;;;5065478;28;20434;-68
2022/06/13 12:41:00;;;;;;;0.60;0.30;;;26.60;56.70;;;;;;5069185;28;20387;-68
2022/06/13 12:43:28;;;;;;;0.40;0.20;;;28.10;49.20;;;;;;5064399;28;20514;-67
2022/06/13 12:45:54;;;;;;;0.43;0.30;;;26.30;52.30;;;;;;5067188;28;20755;-68
2022/06/13 12:48:51;;;;;;;0.40;0.20;;;26.50;54.70;;;;;;5065685;28;20396;-69
2022/06/13 12:51:45;;;;;;;0.40;0.30;;;25.90;52.40;;;;;;5055549;28;20403;-69
2022/06/13 12:54:48;;;;;;;0.40;0.20;;;26.30;53.30;;;;;;5066662;28;20471;-68
2022/06/13 12:57:35;;;;;;;0.50;0.30;;;25.40;53.50;;;;;;5066688;28;20860;-67
2022/06/13 13:00:22;;;;;;;0.50;0.40;;;25.00;53.60;;;;;;5068163;28;20399;-68
2022/06/13 13:03:04;;;;;;;0.40;0.20;;;25.20;53.70;;;;;;5059994;28;20419;-69
2022/06/13 13:05:57;;;;;;;0.50;0.40;;;25.00;53.20;;;;;;5058165;28;20404;-68
2022/06/13 13:08:28;;;;;;;0.40;0.20;;;25.20;54.40;;;;;;5063106;28;20743;-68
2022/06/13 13:11:13;;;;;;;0.40;0.20;;;24.90;57.20;;;;;;5069341;28;20384;-69
2022/06/13 13:13:49;;;;;;;0.40;0.20;;;26.00;57.90;;;;;;5068266;28;20408;-69
2022/06/13 13:16:35;;;;;;;0.40;0.20;;;25.90;51.40;;;;;;5067553;28;20483;-69
2022/06/13 13:19:18;;;;;;;0.40;0.20;;;25.60;53.60;;;;;;5067909;28;20509;-68
2022/06/13 13:22:02;;;;;;;0.40;0.20;;;25.70;53.40;;;;;;5066475;28;20439;-69
2022/06/13 13:24:36;;;;;;;0.60;0.60;;;25.90;54.70;;;;;;5072875;28;20390;-69
2022/06/13 13:27:04;;;;;;;0.40;0.30;;;25.90;53.30;;;;;;5069219;28;20406;-68
2022/06/13 13:29:41;;;;;;;0.40;0.30;;;26.50;58.50;;;;;;5065302;28;21259;-68
2022/06/13 13:32:10;;;;;;;0.40;0.20;;;26.10;56.20;;;;;;5062730;28;20442;-69
2022/06/13 13:34:41;;;;;;;0.40;0.20;;;26.00;55.20;;;;;;5063521;28;20487;-69
2022/06/13 13:37:35;;;;;;;0.40;0.30;;;25.30;56.70;;;;;;5069021;28;20392;-69
2022/06/13 13:40:04;;;;;;;0.40;0.20;;;25.90;56.10;;;;;;5071834;28;20396;-70
2022/06/13 13:42:35;;;;;;;0.40;0.28;;;25.70;58.20;;;;;;5066225;28;20443;-69
2022/06/13 13:45:06;;;;;;;0.40;0.30;;;26.50;57.80;;;;;;5066100;28;20417;-70
2022/06/13 13:47:35;;;;;;;0.40;0.30;;;26.80;55.80;;;;;;5067070;28;20418;-70
2022/06/13 13:50:06;;;;;;;0.40;0.20;;;27.00;55.00;;;;;;5070584;28;20403;-70
2022/06/13 13:52:42;;;;;;;1.70;1.60;;;26.30;53.50;;;;;;5069313;28;20454;-70
2022/06/13 13:55:20;;;;;;;0.40;0.20;;;26.90;54.90;;;;;;5071308;28;20494;-70
2022/06/13 13:57:58;;;;;;;0.40;0.20;;;26.90;54.80;;;;;;5067801;28;20395;-70
2022/06/13 14:00:44;;;;;;;0.40;0.30;;;26.90;57.20;;;;;;5069288;28;20784;-70
2022/06/13 14:03:24;;;;;;;0.40;0.22;;;26.10;57.90;;;;;;5067568;28;20931;-70
2022/06/13 14:05:55;;;;;;;0.40;0.30;;;26.20;55.90;;;;;;5068043;28;20414;-69
2022/06/13 14:08:25;;;;;;;0.40;0.30;;;25.50;57.70;;;;;;5064369;28;20391;-70
2022/06/13 14:10:57;;;;;;;0.40;0.20;;;25.80;54.90;;;;;;5060046;28;20399;-70
2022/06/13 14:13:30;;;;;;;0.40;0.20;;;25.60;56.30;;;;;;5072634;28;20740;-70
2022/06/13 14:15:55;;;;;;;0.40;0.28;;;25.80;54.60;;;;;;5065967;28;20400;-70
2022/06/13 14:18:27;;;;;;;0.40;0.30;;;25.70;58.00;;;;;;5055256;28;20401;-69
2022/06/13 14:20:53;;;;;;;0.40;0.30;;;25.90;55.60;;;;;;5062189;28;20461;-69
2022/06/13 14:23:24;;;;;;;0.50;0.40;;;25.90;58.10;;;;;;5068383;28;20798;-72
2022/06/13 14:25:53;;;;;;;0.50;0.30;;;26.50;51.50;;;;;;5067692;28;20399;-71